sensor_id;sensor_type;location;lat;lon;timestamp;pressure;altitude;pressure_sealevel;temperature;humidity
74678;BME280;67324;56.326;43.982;2023-04-25T00:02:04;100856.69;;;21.33;31.10
74678;BME280;67324;56.326;43.982;2023-04-25T00:04:30;100860.16;;;21.33;31.25
74678;BME280;67324;56.326;43.982;2023-04-25T00:06:59;100857.81;;;21.30;31.22
74678;BME280;67324;56.326;43.982;2023-04-25T00:09:27;100853.28;;;21.22;31.38
74678;BME280;67324;56.326;43.982;2023-04-25T00:11:53;100849.66;;;21.23;31.38
74678;BME280;67324;56.326;43.982;2023-04-25T00:14:19;100860.16;;;21.33;31.21
74678;BME280;67324;56.326;43.982;2023-04-25T00:16:44;100859.47;;;21.31;31.37
74678;BME280;67324;56.326;43.982;2023-04-25T00:19:10;100865.59;;;21.32;31.17
74678;BME280;67324;56.326;43.982;2023-04-25T00:21:37;100865.31;;;21.25;31.35
74678;BME280;67324;56.326;43.982;2023-04-25T00:24:12;100865.47;;;21.23;31.49
74678;BME280;67324;56.326;43.982;2023-04-25T00:26:56;100856.78;;;21.13;31.80
74678;BME280;67324;56.326;43.982;2023-04-25T00:29:22;100869.25;;;21.11;31.82
74678;BME280;67324;56.326;43.982;2023-04-25T00:31:48;100858.19;;;21.07;31.91
74678;BME280;67324;56.326;43.982;2023-04-25T00:34:14;100860.66;;;21.09;31.67
74678;BME280;67324;56.326;43.982;2023-04-25T00:36:40;100864.16;;;21.10;31.66
74678;BME280;67324;56.326;43.982;2023-04-25T00:39:06;100858.16;;;21.17;31.54
74678;BME280;67324;56.326;43.982;2023-04-25T00:41:32;100858.84;;;21.19;31.67
74678;BME280;67324;56.326;43.982;2023-04-25T00:43:59;100852.59;;;21.20;31.67
74678;BME280;67324;56.326;43.982;2023-04-25T00:46:26;100854.72;;;21.17;31.87
74678;BME280;67324;56.326;43.982;2023-04-25T00:48:52;100860.09;;;21.15;31.92
74678;BME280;67324;56.326;43.982;2023-04-25T00:51:20;100863.84;;;21.13;31.89
74678;BME280;67324;56.326;43.982;2023-04-25T00:53:48;100858.72;;;21.11;31.96
74678;BME280;67324;56.326;43.982;2023-04-25T00:56:15;100858.03;;;21.09;32.28
74678;BME280;67324;56.326;43.982;2023-04-25T00:58:41;100855.75;;;21.24;32.24
74678;BME280;67324;56.326;43.982;2023-04-25T01:01:08;100853.50;;;21.29;31.88
74678;BME280;67324;56.326;43.982;2023-04-25T01:03:38;100851.44;;;21.33;32.06
74678;BME280;67324;56.326;43.982;2023-04-25T01:06:09;100856.28;;;21.37;31.92
74678;BME280;67324;56.326;43.982;2023-04-25T01:08:38;100863.91;;;21.40;31.88
74678;BME280;67324;56.326;43.982;2023-04-25T01:11:04;100854.34;;;21.39;31.97
74678;BME280;67324;56.326;43.982;2023-04-25T01:13:30;100853.06;;;21.43;32.19
74678;BME280;67324;56.326;43.982;2023-04-25T01:15:58;100845.19;;;21.43;32.13
74678;BME280;67324;56.326;43.982;2023-04-25T01:18:24;100845.72;;;21.47;32.37
74678;BME280;67324;56.326;43.982;2023-04-25T01:21:10;100850.13;;;21.46;32.42
74678;BME280;67324;56.326;43.982;2023-04-25T01:23:38;100847.06;;;21.51;32.54
74678;BME280;67324;56.326;43.982;2023-04-25T01:26:06;100849.69;;;21.51;32.59
74678;BME280;67324;56.326;43.982;2023-04-25T01:28:33;100860.78;;;21.55;32.63
74678;BME280;67324;56.326;43.982;2023-04-25T01:30:59;100857.31;;;21.54;32.72
74678;BME280;67324;56.326;43.982;2023-04-25T01:33:26;100851.59;;;21.59;32.75
74678;BME280;67324;56.326;43.982;2023-04-25T01:35:51;100849.66;;;21.61;32.90
74678;BME280;67324;56.326;43.982;2023-04-25T01:38:36;100852.44;;;21.59;33.22
74678;BME280;67324;56.326;43.982;2023-04-25T01:41:02;100860.19;;;21.61;32.79
74678;BME280;67324;56.326;43.982;2023-04-25T01:43:46;100862.81;;;21.61;32.95
74678;BME280;67324;56.326;43.982;2023-04-25T01:46:12;100865.16;;;21.64;32.87
74678;BME280;67324;56.326;43.982;2023-04-25T01:48:38;100855.28;;;21.66;32.68
74678;BME280;67324;56.326;43.982;2023-04-25T01:51:06;100863.19;;;21.66;32.65
74678;BME280;67324;56.326;43.982;2023-04-25T01:53:32;100869.84;;;21.70;32.64
74678;BME280;67324;56.326;43.982;2023-04-25T01:55:59;100862.25;;;21.67;32.67
74678;BME280;67324;56.326;43.982;2023-04-25T01:58:43;100861.94;;;21.70;32.61
74678;BME280;67324;56.326;43.982;2023-04-25T02:01:24;100867.72;;;21.73;32.55
74678;BME280;67324;56.326;43.982;2023-04-25T02:04:09;100863.13;;;21.76;32.28
74678;BME280;67324;56.326;43.982;2023-04-25T02:06:37;100856.38;;;21.73;32.36
74678;BME280;67324;56.326;43.982;2023-04-25T02:09:22;100869.91;;;21.78;32.34
74678;BME280;67324;56.326;43.982;2023-04-25T02:11:53;100870.91;;;21.77;32.41
74678;BME280;67324;56.326;43.982;2023-04-25T02:14:39;100871.28;;;21.82;32.30
74678;BME280;67324;56.326;43.982;2023-04-25T02:17:15;100870.59;;;21.80;32.23
74678;BME280;67324;56.326;43.982;2023-04-25T02:19:41;100875.72;;;21.82;32.15
74678;BME280;67324;56.326;43.982;2023-04-25T02:22:07;100874.59;;;21.84;32.20
74678;BME280;67324;56.326;43.982;2023-04-25T02:24:33;100865.72;;;21.85;32.11
74678;BME280;67324;56.326;43.982;2023-04-25T02:27:00;100861.25;;;21.86;32.11
74678;BME280;67324;56.326;43.982;2023-04-25T02:29:27;100874.97;;;21.89;31.98
74678;BME280;67324;56.326;43.982;2023-04-25T02:32:12;100875.81;;;21.90;32.03
74678;BME280;67324;56.326;43.982;2023-04-25T02:34:38;100881.75;;;21.92;31.91
74678;BME280;67324;56.326;43.982;2023-04-25T02:37:03;100872.88;;;21.93;31.89
74678;BME280;67324;56.326;43.982;2023-04-25T02:39:29;100880.63;;;21.94;31.88
74678;BME280;67324;56.326;43.982;2023-04-25T02:41:55;100878.81;;;21.95;31.84
74678;BME280;67324;56.326;43.982;2023-04-25T02:44:21;100874.53;;;21.94;31.79
74678;BME280;67324;56.326;43.982;2023-04-25T02:47:05;100877.16;;;21.94;31.75
74678;BME280;67324;56.326;43.982;2023-04-25T02:49:31;100876.72;;;21.99;31.75
74678;BME280;67324;56.326;43.982;2023-04-25T02:51:57;100870.78;;;21.97;31.89
74678;BME280;67324;56.326;43.982;2023-04-25T02:54:23;100875.75;;;22.00;31.75
74678;BME280;67324;56.326;43.982;2023-04-25T02:56:49;100868.81;;;21.99;31.76
74678;BME280;67324;56.326;43.982;2023-04-25T02:59:21;100880.00;;;22.01;31.70
74678;BME280;67324;56.326;43.982;2023-04-25T03:01:47;100882.81;;;21.99;31.70
74678;BME280;67324;56.326;43.982;2023-04-25T03:04:13;100887.66;;;22.04;31.73
74678;BME280;67324;56.326;43.982;2023-04-25T03:06:39;100887.47;;;22.05;31.70
74678;BME280;67324;56.326;43.982;2023-04-25T03:09:05;100882.22;;;22.05;31.60
74678;BME280;67324;56.326;43.982;2023-04-25T03:11:31;100885.84;;;22.04;31.65
74678;BME280;67324;56.326;43.982;2023-04-25T03:13:57;100894.41;;;22.06;31.59
74678;BME280;67324;56.326;43.982;2023-04-25T03:16:23;100896.19;;;22.06;31.59
74678;BME280;67324;56.326;43.982;2023-04-25T03:18:49;100889.16;;;22.06;31.56
74678;BME280;67324;56.326;43.982;2023-04-25T03:21:16;100894.41;;;22.06;31.66
74678;BME280;67324;56.326;43.982;2023-04-25T03:24:03;100887.34;;;22.07;31.51
74678;BME280;67324;56.326;43.982;2023-04-25T03:26:29;100895.94;;;22.09;31.62
74678;BME280;67324;56.326;43.982;2023-04-25T03:28:55;100893.94;;;22.11;31.55
74678;BME280;67324;56.326;43.982;2023-04-25T03:31:21;100894.63;;;22.13;31.57
74678;BME280;67324;56.326;43.982;2023-04-25T03:33:48;100889.22;;;22.14;31.47
74678;BME280;67324;56.326;43.982;2023-04-25T03:36:14;100887.53;;;22.13;31.46
74678;BME280;67324;56.326;43.982;2023-04-25T03:38:40;100879.81;;;22.12;31.48
74678;BME280;67324;56.326;43.982;2023-04-25T03:41:08;100882.28;;;22.13;31.60
74678;BME280;67324;56.326;43.982;2023-04-25T03:43:40;100885.75;;;22.14;31.45
74678;BME280;67324;56.326;43.982;2023-04-25T03:46:10;100882.81;;;22.17;31.44
74678;BME280;67324;56.326;43.982;2023-04-25T03:48:37;100879.38;;;22.17;31.45
74678;BME280;67324;56.326;43.982;2023-04-25T03:51:03;100884.47;;;22.18;31.50
74678;BME280;67324;56.326;43.982;2023-04-25T03:53:30;100882.00;;;22.17;31.43
74678;BME280;67324;56.326;43.982;2023-04-25T03:56:19;100878.09;;;22.21;31.39
74678;BME280;67324;56.326;43.982;2023-04-25T03:58:49;100869.38;;;22.20;31.39
74678;BME280;67324;56.326;43.982;2023-04-25T04:01:18;100871.28;;;22.18;31.50
74678;BME280;67324;56.326;43.982;2023-04-25T04:03:44;100861.59;;;22.19;31.35
74678;BME280;67324;56.326;43.982;2023-04-25T04:06:10;100873.69;;;22.21;31.41
74678;BME280;67324;56.326;43.982;2023-04-25T04:08:39;100878.94;;;22.21;31.29
74678;BME280;67324;56.326;43.982;2023-04-25T04:11:05;100868.41;;;22.21;31.37
74678;BME280;67324;56.326;43.982;2023-04-25T04:13:32;100877.81;;;22.24;31.30
74678;BME280;67324;56.326;43.982;2023-04-25T04:15:58;100880.44;;;22.24;31.36
74678;BME280;67324;56.326;43.982;2023-04-25T04:18:23;100883.75;;;22.26;31.32
74678;BME280;67324;56.326;43.982;2023-04-25T04:20:49;100876.69;;;22.26;31.29
74678;BME280;67324;56.326;43.982;2023-04-25T04:23:16;100874.88;;;22.27;31.23
74678;BME280;67324;56.326;43.982;2023-04-25T04:25:42;100876.50;;;22.28;31.30
74678;BME280;67324;56.326;43.982;2023-04-25T04:28:28;100870.41;;;22.27;31.33
74678;BME280;67324;56.326;43.982;2023-04-25T04:31:07;100870.41;;;22.27;31.26
74678;BME280;67324;56.326;43.982;2023-04-25T04:33:34;100866.16;;;22.26;31.30
74678;BME280;67324;56.326;43.982;2023-04-25T04:36:03;100872.91;;;22.29;31.27
74678;BME280;67324;56.326;43.982;2023-04-25T04:38:30;100879.00;;;22.29;31.09
74678;BME280;67324;56.326;43.982;2023-04-25T04:40:59;100866.50;;;22.31;31.33
74678;BME280;67324;56.326;43.982;2023-04-25T04:43:47;100873.75;;;22.29;31.21
74678;BME280;67324;56.326;43.982;2023-04-25T04:46:36;100874.41;;;22.31;31.21
74678;BME280;67324;56.326;43.982;2023-04-25T04:49:26;100871.09;;;22.29;31.25
74678;BME280;67324;56.326;43.982;2023-04-25T04:52:15;100863.88;;;22.31;31.25
74678;BME280;67324;56.326;43.982;2023-04-25T04:54:59;100868.97;;;22.33;31.20
74678;BME280;67324;56.326;43.982;2023-04-25T04:57:50;100881.19;;;22.34;31.25
74678;BME280;67324;56.326;43.982;2023-04-25T05:00:36;100866.50;;;22.31;31.22
74678;BME280;67324;56.326;43.982;2023-04-25T05:03:35;100874.09;;;22.34;31.24
74678;BME280;67324;56.326;43.982;2023-04-25T05:06:21;100868.84;;;22.34;31.25
74678;BME280;67324;56.326;43.982;2023-04-25T05:09:07;100867.84;;;22.35;31.19
74678;BME280;67324;56.326;43.982;2023-04-25T05:11:49;100868.69;;;22.36;31.09
74678;BME280;67324;56.326;43.982;2023-04-25T05:14:27;100866.06;;;22.36;31.18
74678;BME280;67324;56.326;43.982;2023-04-25T05:17:22;100861.75;;;22.35;31.21
74678;BME280;67324;56.326;43.982;2023-04-25T05:20:07;100869.53;;;22.36;31.20
74678;BME280;67324;56.326;43.982;2023-04-25T05:22:53;100860.94;;;22.34;31.18
74678;BME280;67324;56.326;43.982;2023-04-25T05:25:32;100866.72;;;22.38;31.18
74678;BME280;67324;56.326;43.982;2023-04-25T05:28:24;100872.97;;;22.37;31.30
74678;BME280;67324;56.326;43.982;2023-04-25T05:30:58;100864.25;;;22.36;31.22
74678;BME280;67324;56.326;43.982;2023-04-25T05:33:30;100861.31;;;22.40;31.21
74678;BME280;67324;56.326;43.982;2023-04-25T05:35:56;100867.56;;;22.39;31.14
74678;BME280;67324;56.326;43.982;2023-04-25T05:38:23;100865.56;;;22.41;31.12
74678;BME280;67324;56.326;43.982;2023-04-25T05:41:07;100867.56;;;22.39;31.31
74678;BME280;67324;56.326;43.982;2023-04-25T05:44:00;100863.13;;;22.39;31.15
74678;BME280;67324;56.326;43.982;2023-04-25T05:46:54;100865.75;;;22.39;31.33
74678;BME280;67324;56.326;43.982;2023-04-25T05:49:42;100871.84;;;22.40;31.22
74678;BME280;67324;56.326;43.982;2023-04-25T05:52:31;100862.28;;;22.39;31.17
74678;BME280;67324;56.326;43.982;2023-04-25T05:55:09;100857.03;;;22.39;31.16
74678;BME280;67324;56.326;43.982;2023-04-25T05:57:36;100860.47;;;22.39;31.17
74678;BME280;67324;56.326;43.982;2023-04-25T06:00:02;100868.06;;;22.42;31.14
74678;BME280;67324;56.326;43.982;2023-04-25T06:02:49;100867.94;;;22.44;31.15
74678;BME280;67324;56.326;43.982;2023-04-25T06:05:17;100862.66;;;22.44;31.14
74678;BME280;67324;56.326;43.982;2023-04-25T06:07:44;100846.16;;;22.42;31.15
74678;BME280;67324;56.326;43.982;2023-04-25T06:10:10;100858.34;;;22.43;31.10
74678;BME280;67324;56.326;43.982;2023-04-25T06:12:37;100858.88;;;22.46;31.16
74678;BME280;67324;56.326;43.982;2023-04-25T06:15:22;100843.22;;;22.45;31.16
74678;BME280;67324;56.326;43.982;2023-04-25T06:17:48;100850.00;;;22.47;31.18
74678;BME280;67324;56.326;43.982;2023-04-25T06:20:14;100840.25;;;22.48;31.10
74678;BME280;67324;56.326;43.982;2023-04-25T06:22:40;100848.19;;;22.48;31.15
74678;BME280;67324;56.326;43.982;2023-04-25T06:25:06;100849.00;;;22.48;31.10
74678;BME280;67324;56.326;43.982;2023-04-25T06:27:34;100849.00;;;22.48;31.13
74678;BME280;67324;56.326;43.982;2023-04-25T06:30:01;100835.00;;;22.48;31.07
74678;BME280;67324;56.326;43.982;2023-04-25T06:32:30;100844.41;;;22.50;31.05
74678;BME280;67324;56.326;43.982;2023-04-25T06:34:58;100842.63;;;22.51;31.13
74678;BME280;67324;56.326;43.982;2023-04-25T06:37:24;100838.16;;;22.51;31.16
74678;BME280;67324;56.326;43.982;2023-04-25T06:39:51;100831.09;;;22.52;31.07
74678;BME280;67324;56.326;43.982;2023-04-25T06:42:17;100839.81;;;22.52;31.04
74678;BME280;67324;56.326;43.982;2023-04-25T06:44:51;100835.66;;;22.50;31.09
74678;BME280;67324;56.326;43.982;2023-04-25T06:47:18;100830.41;;;22.50;31.10
74678;BME280;67324;56.326;43.982;2023-04-25T06:49:44;100846.75;;;22.53;31.12
74678;BME280;67324;56.326;43.982;2023-04-25T06:52:10;100832.06;;;22.51;31.10
74678;BME280;67324;56.326;43.982;2023-04-25T06:54:37;100832.72;;;22.53;31.07
74678;BME280;67324;56.326;43.982;2023-04-25T06:57:15;100829.13;;;22.54;31.16
74678;BME280;67324;56.326;43.982;2023-04-25T06:59:41;100824.66;;;22.54;31.05
74678;BME280;67324;56.326;43.982;2023-04-25T07:02:07;100833.41;;;22.55;31.02
74678;BME280;67324;56.326;43.982;2023-04-25T07:04:51;100830.44;;;22.58;31.27
74678;BME280;67324;56.326;43.982;2023-04-25T07:07:17;100817.81;;;22.62;31.93
74678;BME280;67324;56.326;43.982;2023-04-25T07:09:49;100823.13;;;22.70;32.24
74678;BME280;67324;56.326;43.982;2023-04-25T07:12:14;100827.28;;;22.80;32.48
74678;BME280;67324;56.326;43.982;2023-04-25T07:14:40;100834.28;;;22.90;32.49
74678;BME280;67324;56.326;43.982;2023-04-25T07:17:07;100841.56;;;22.96;32.60
74678;BME280;67324;56.326;43.982;2023-04-25T07:19:34;100834.88;;;23.02;32.78
74678;BME280;67324;56.326;43.982;2023-04-25T07:22:01;100831.44;;;23.09;32.82
74678;BME280;67324;56.326;43.982;2023-04-25T07:24:28;100829.16;;;23.14;32.81
74678;BME280;67324;56.326;43.982;2023-04-25T07:26:55;100836.75;;;23.17;32.83
74678;BME280;67324;56.326;43.982;2023-04-25T07:29:37;100827.53;;;23.21;32.88
74678;BME280;67324;56.326;43.982;2023-04-25T07:32:03;100820.13;;;23.25;32.80
74678;BME280;67324;56.326;43.982;2023-04-25T07:34:29;100824.25;;;23.28;32.66
74678;BME280;67324;56.326;43.982;2023-04-25T07:36:56;100816.31;;;23.28;32.66
74678;BME280;67324;56.326;43.982;2023-04-25T07:39:25;100824.59;;;23.33;32.66
74678;BME280;67324;56.326;43.982;2023-04-25T07:41:51;100812.53;;;23.30;32.61
74678;BME280;67324;56.326;43.982;2023-04-25T07:44:22;100818.00;;;23.29;32.37
74678;BME280;67324;56.326;43.982;2023-04-25T07:46:49;100810.22;;;23.27;32.27
74678;BME280;67324;56.326;43.982;2023-04-25T07:49:15;100815.84;;;23.24;32.39
74678;BME280;67324;56.326;43.982;2023-04-25T07:51:43;100811.22;;;22.92;32.42
74678;BME280;67324;56.326;43.982;2023-04-25T07:54:14;100817.94;;;22.86;32.78
74678;BME280;67324;56.326;43.982;2023-04-25T07:56:44;100808.34;;;23.03;32.50
74678;BME280;67324;56.326;43.982;2023-04-25T07:59:10;100791.38;;;22.79;31.88
74678;BME280;67324;56.326;43.982;2023-04-25T08:01:37;100801.69;;;22.73;31.87
74678;BME280;67324;56.326;43.982;2023-04-25T08:04:05;100789.41;;;22.82;31.93
74678;BME280;67324;56.326;43.982;2023-04-25T08:06:51;100792.50;;;22.77;31.73
74678;BME280;67324;56.326;43.982;2023-04-25T08:09:23;100789.25;;;22.83;31.61
74678;BME280;67324;56.326;43.982;2023-04-25T08:11:50;100779.88;;;22.89;31.59
74678;BME280;67324;56.326;43.982;2023-04-25T08:14:20;100785.88;;;22.99;31.75
74678;BME280;67324;56.326;43.982;2023-04-25T08:16:48;100772.69;;;22.99;31.78
74678;BME280;67324;56.326;43.982;2023-04-25T08:19:14;100776.16;;;22.99;31.67
74678;BME280;67324;56.326;43.982;2023-04-25T08:21:40;100776.34;;;23.06;31.67
74678;BME280;67324;56.326;43.982;2023-04-25T08:24:10;100759.69;;;23.06;31.98
74678;BME280;67324;56.326;43.982;2023-04-25T08:26:38;100774.78;;;22.95;31.81
74678;BME280;67324;56.326;43.982;2023-04-25T08:29:05;100772.31;;;22.94;31.76
74678;BME280;67324;56.326;43.982;2023-04-25T08:31:32;100772.22;;;23.04;31.91
74678;BME280;67324;56.326;43.982;2023-04-25T08:34:01;100768.31;;;23.16;31.83
74678;BME280;67324;56.326;43.982;2023-04-25T08:36:32;100764.19;;;23.13;31.58
74678;BME280;67324;56.326;43.982;2023-04-25T08:38:59;100768.75;;;23.03;31.74
74678;BME280;67324;56.326;43.982;2023-04-25T08:41:26;100756.63;;;22.58;31.78
74678;BME280;67324;56.326;43.982;2023-04-25T08:43:53;100742.38;;;22.69;31.63
74678;BME280;67324;56.326;43.982;2023-04-25T08:46:19;100745.03;;;22.77;31.60
74678;BME280;67324;56.326;43.982;2023-04-25T08:49:15;100752.94;;;23.03;31.80
74678;BME280;67324;56.326;43.982;2023-04-25T08:51:46;100752.50;;;22.90;31.41
74678;BME280;67324;56.326;43.982;2023-04-25T08:54:14;100739.75;;;22.77;31.33
74678;BME280;67324;56.326;43.982;2023-04-25T08:56:44;100741.66;;;22.58;31.44
74678;BME280;67324;56.326;43.982;2023-04-25T08:59:13;100738.38;;;22.65;31.86
74678;BME280;67324;56.326;43.982;2023-04-25T09:01:41;100735.88;;;22.63;31.63
74678;BME280;67324;56.326;43.982;2023-04-25T09:04:07;100739.97;;;22.84;31.65
74678;BME280;67324;56.326;43.982;2023-04-25T09:06:33;100732.19;;;22.82;31.63
74678;BME280;67324;56.326;43.982;2023-04-25T09:09:07;100750.81;;;22.80;31.69
74678;BME280;67324;56.326;43.982;2023-04-25T09:11:34;100733.53;;;22.86;31.43
74678;BME280;67324;56.326;43.982;2023-04-25T09:14:30;100737.56;;;22.64;31.32
74678;BME280;67324;56.326;43.982;2023-04-25T09:17:04;100741.94;;;22.55;31.41
74678;BME280;67324;56.326;43.982;2023-04-25T09:19:51;100737.53;;;22.56;31.64
74678;BME280;67324;56.326;43.982;2023-04-25T09:22:30;100730.25;;;22.58;31.70
74678;BME280;67324;56.326;43.982;2023-04-25T09:24:57;100739.06;;;22.67;31.56
74678;BME280;67324;56.326;43.982;2023-04-25T09:27:26;100734.91;;;22.64;31.30
74678;BME280;67324;56.326;43.982;2023-04-25T09:30:02;100729.84;;;22.36;31.66
74678;BME280;67324;56.326;43.982;2023-04-25T09:32:43;100727.88;;;22.39;31.63
74678;BME280;67324;56.326;43.982;2023-04-25T09:35:10;100723.31;;;22.49;31.67
74678;BME280;67324;56.326;43.982;2023-04-25T09:37:37;100723.13;;;22.50;31.65
74678;BME280;67324;56.326;43.982;2023-04-25T09:40:26;100719.69;;;22.50;31.55
74678;BME280;67324;56.326;43.982;2023-04-25T09:43:00;100732.25;;;22.56;31.59
74678;BME280;67324;56.326;43.982;2023-04-25T09:45:29;100725.66;;;22.60;31.77
74678;BME280;67324;56.326;43.982;2023-04-25T09:47:56;100720.47;;;22.76;31.75
74678;BME280;67324;56.326;43.982;2023-04-25T09:50:26;100721.16;;;22.78;31.80
74678;BME280;67324;56.326;43.982;2023-04-25T09:53:11;100715.91;;;22.87;31.84
74678;BME280;67324;56.326;43.982;2023-04-25T09:56:00;100712.56;;;22.76;32.07
74678;BME280;67324;56.326;43.982;2023-04-25T09:58:29;100723.78;;;22.78;31.99
74678;BME280;67324;56.326;43.982;2023-04-25T10:01:02;100716.91;;;22.86;32.06
74678;BME280;67324;56.326;43.982;2023-04-25T10:03:39;100724.50;;;22.97;32.09
74678;BME280;67324;56.326;43.982;2023-04-25T10:06:21;100716.81;;;23.04;32.15
74678;BME280;67324;56.326;43.982;2023-04-25T10:08:51;100720.75;;;23.08;32.06
74678;BME280;67324;56.326;43.982;2023-04-25T10:11:20;100724.41;;;23.15;32.17
74678;BME280;67324;56.326;43.982;2023-04-25T10:13:48;100718.00;;;23.17;32.28
74678;BME280;67324;56.326;43.982;2023-04-25T10:16:14;100715.88;;;23.21;32.35
74678;BME280;67324;56.326;43.982;2023-04-25T10:18:41;100712.22;;;23.14;32.16
74678;BME280;67324;56.326;43.982;2023-04-25T10:21:07;100714.03;;;23.13;32.19
74678;BME280;67324;56.326;43.982;2023-04-25T10:23:34;100704.13;;;23.15;32.35
74678;BME280;67324;56.326;43.982;2023-04-25T10:26:01;100714.06;;;23.21;32.26
74678;BME280;67324;56.326;43.982;2023-04-25T10:28:27;100697.41;;;23.21;32.29
74678;BME280;67324;56.326;43.982;2023-04-25T10:31:15;100702.50;;;23.22;32.29
74678;BME280;67324;56.326;43.982;2023-04-25T10:33:42;100701.03;;;23.28;32.39
74678;BME280;67324;56.326;43.982;2023-04-25T10:38:36;100705.81;;;23.25;32.26
74678;BME280;67324;56.326;43.982;2023-04-25T10:41:05;100705.16;;;23.31;32.26
74678;BME280;67324;56.326;43.982;2023-04-25T10:45:58;100690.97;;;23.40;32.20
74678;BME280;67324;56.326;43.982;2023-04-25T10:48:29;100693.13;;;23.44;32.08
74678;BME280;67324;56.326;43.982;2023-04-25T10:51:12;100696.44;;;23.47;32.14
74678;BME280;67324;56.326;43.982;2023-04-25T10:53:41;100681.41;;;23.47;32.02
74678;BME280;67324;56.326;43.982;2023-04-25T10:56:26;100687.88;;;23.53;32.13
74678;BME280;67324;56.326;43.982;2023-04-25T10:59:15;100686.72;;;23.55;32.04
74678;BME280;67324;56.326;43.982;2023-04-25T11:02:01;100691.34;;;23.53;31.99
74678;BME280;67324;56.326;43.982;2023-04-25T11:04:36;100684.06;;;23.47;31.85
74678;BME280;67324;56.326;43.982;2023-04-25T11:09:39;100685.06;;;23.38;31.54
74678;BME280;67324;56.326;43.982;2023-04-25T11:12:08;100680.09;;;23.35;31.83
74678;BME280;67324;56.326;43.982;2023-04-25T11:14:34;100684.22;;;23.37;31.90
74678;BME280;67324;56.326;43.982;2023-04-25T11:17:00;100671.00;;;23.37;31.91
74678;BME280;67324;56.326;43.982;2023-04-25T11:19:28;100677.13;;;23.38;31.84
74678;BME280;67324;56.326;43.982;2023-04-25T11:22:13;100676.13;;;23.39;31.73
74678;BME280;67324;56.326;43.982;2023-04-25T11:24:39;100680.94;;;23.35;31.47
74678;BME280;67324;56.326;43.982;2023-04-25T11:27:05;100675.13;;;23.32;31.86
74678;BME280;67324;56.326;43.982;2023-04-25T11:29:34;100675.09;;;23.15;31.68
74678;BME280;67324;56.326;43.982;2023-04-25T11:32:00;100670.00;;;23.22;31.82
74678;BME280;67324;56.326;43.982;2023-04-25T11:34:28;100678.09;;;23.29;31.77
74678;BME280;67324;56.326;43.982;2023-04-25T11:36:56;100669.53;;;23.35;31.93
74678;BME280;67324;56.326;43.982;2023-04-25T11:39:24;100665.25;;;23.42;31.89
74678;BME280;67324;56.326;43.982;2023-04-25T11:41:51;100667.41;;;23.47;31.95
74678;BME280;67324;56.326;43.982;2023-04-25T11:44:18;100659.94;;;23.50;31.85
74678;BME280;67324;56.326;43.982;2023-04-25T11:46:44;100672.50;;;23.56;31.83
74678;BME280;67324;56.326;43.982;2023-04-25T11:49:11;100655.84;;;23.56;31.77
74678;BME280;67324;56.326;43.982;2023-04-25T11:51:44;100656.00;;;23.62;31.77
74678;BME280;67324;56.326;43.982;2023-04-25T11:54:11;100658.47;;;23.64;31.79
74678;BME280;67324;56.326;43.982;2023-04-25T11:56:41;100650.41;;;23.65;31.84
74678;BME280;67324;56.326;43.982;2023-04-25T11:59:07;100644.94;;;23.67;31.75
74678;BME280;67324;56.326;43.982;2023-04-25T12:01:38;100648.25;;;23.69;31.74
74678;BME280;67324;56.326;43.982;2023-04-25T12:04:11;100642.81;;;23.71;31.82
74678;BME280;67324;56.326;43.982;2023-04-25T12:06:38;100650.72;;;23.71;31.83
74678;BME280;67324;56.326;43.982;2023-04-25T12:09:09;100643.50;;;23.73;31.87
74678;BME280;67324;56.326;43.982;2023-04-25T12:11:46;100639.16;;;23.72;31.84
74678;BME280;67324;56.326;43.982;2023-04-25T12:14:20;100644.97;;;23.75;31.86
74678;BME280;67324;56.326;43.982;2023-04-25T12:16:48;100642.97;;;23.69;32.01
74678;BME280;67324;56.326;43.982;2023-04-25T12:19:15;100645.44;;;23.71;32.04
74678;BME280;67324;56.326;43.982;2023-04-25T12:21:42;100640.97;;;23.71;32.31
74678;BME280;67324;56.326;43.982;2023-04-25T12:24:16;100637.22;;;23.74;32.37
74678;BME280;67324;56.326;43.982;2023-04-25T12:26:46;100642.50;;;23.74;32.28
74678;BME280;67324;56.326;43.982;2023-04-25T12:29:21;100632.59;;;23.76;32.40
74678;BME280;67324;56.326;43.982;2023-04-25T12:31:47;100647.09;;;23.80;32.38
74678;BME280;67324;56.326;43.982;2023-04-25T12:34:13;100638.19;;;23.81;32.49
74678;BME280;67324;56.326;43.982;2023-04-25T12:36:40;100642.31;;;23.83;32.48
74678;BME280;67324;56.326;43.982;2023-04-25T12:39:06;100634.56;;;23.82;32.66
74678;BME280;67324;56.326;43.982;2023-04-25T12:41:32;100623.69;;;23.85;32.67
74678;BME280;67324;56.326;43.982;2023-04-25T12:43:58;100631.59;;;23.85;32.77
74678;BME280;67324;56.326;43.982;2023-04-25T12:46:24;100636.53;;;23.88;32.78
74678;BME280;67324;56.326;43.982;2023-04-25T12:48:50;100631.59;;;23.85;32.79
74678;BME280;67324;56.326;43.982;2023-04-25T12:51:16;100635.06;;;23.85;32.82
74678;BME280;67324;56.326;43.982;2023-04-25T12:53:42;100644.28;;;23.90;32.87
74678;BME280;67324;56.326;43.982;2023-04-25T12:56:08;100635.38;;;23.91;32.88
74678;BME280;67324;56.326;43.982;2023-04-25T12:58:34;100637.19;;;23.90;32.79
74678;BME280;67324;56.326;43.982;2023-04-25T13:01:00;100634.72;;;23.89;32.92
74678;BME280;67324;56.326;43.982;2023-04-25T13:03:25;100627.59;;;23.89;32.98
74678;BME280;67324;56.326;43.982;2023-04-25T13:05:52;100644.13;;;23.91;32.87
74678;BME280;67324;56.326;43.982;2023-04-25T13:08:18;100634.56;;;23.90;32.88